sensor_id;sensor_type;location;lat;lon;timestamp;P1;durP1;ratioP1;P2;durP2;ratioP2
26780;SDS011;14366;49.184;8.054;2023-04-24T00:04:44;1.75;;;1.20;;
26780;SDS011;14366;49.184;8.054;2023-04-24T00:10:06;2.87;;;1.20;;
26780;SDS011;14366;49.184;8.054;2023-04-24T00:15:38;4.20;;;1.40;;
26780;SDS011;14366;49.184;8.054;2023-04-24T00:21:10;1.70;;;1.40;;
26780;SDS011;14366;49.184;8.054;2023-04-24T00:26:43;2.10;;;1.62;;
26780;SDS011;14366;49.184;8.054;2023-04-24T00:37:19;3.00;;;1.50;;
26780;SDS011;14366;49.184;8.054;2023-04-24T00:47:45;2.30;;;1.70;;
26780;SDS011;14366;49.184;8.054;2023-04-24T00:58:24;2.15;;;1.70;;
26780;SDS011;14366;49.184;8.054;2023-04-24T01:03:57;2.05;;;1.45;;
26780;SDS011;14366;49.184;8.054;2023-04-24T01:14:33;2.20;;;1.40;;
26780;SDS011;14366;49.184;8.054;2023-04-24T01:25:10;3.25;;;1.60;;
26780;SDS011;14366;49.184;8.054;2023-04-24T01:30:42;4.97;;;1.77;;
26780;SDS011;14366;49.184;8.054;2023-04-24T01:36:14;2.47;;;1.33;;
26780;SDS011;14366;49.184;8.054;2023-04-24T01:46:51;2.40;;;1.60;;
26780;SDS011;14366;49.184;8.054;2023-04-24T01:57:28;2.53;;;1.70;;
26780;SDS011;14366;49.184;8.054;2023-04-24T02:08:05;3.33;;;1.70;;
26780;SDS011;14366;49.184;8.054;2023-04-24T02:18:41;3.20;;;1.85;;
26780;SDS011;14366;49.184;8.054;2023-04-24T02:24:18;2.33;;;1.57;;
26780;SDS011;14366;49.184;8.054;2023-04-24T02:29:53;3.83;;;1.60;;
26780;SDS011;14366;49.184;8.054;2023-04-24T02:35:11;3.60;;;1.50;;
26780;SDS011;14366;49.184;8.054;2023-04-24T02:40:30;2.53;;;1.60;;
26780;SDS011;14366;49.184;8.054;2023-04-24T02:46:05;2.03;;;1.73;;
26780;SDS011;14366;49.184;8.054;2023-04-24T02:51:37;2.33;;;1.70;;
26780;SDS011;14366;49.184;8.054;2023-04-24T02:56:58;2.40;;;1.80;;
26780;SDS011;14366;49.184;8.054;2023-04-24T03:02:30;2.40;;;1.70;;
26780;SDS011;14366;49.184;8.054;2023-04-24T03:07:47;2.93;;;1.80;;
26780;SDS011;14366;49.184;8.054;2023-04-24T03:13:20;1.77;;;1.50;;
26780;SDS011;14366;49.184;8.054;2023-04-24T03:18:52;1.87;;;1.60;;
26780;SDS011;14366;49.184;8.054;2023-04-24T03:24:09;1.97;;;1.67;;
26780;SDS011;14366;49.184;8.054;2023-04-24T03:29:30;3.07;;;1.53;;
26780;SDS011;14366;49.184;8.054;2023-04-24T03:35:02;2.13;;;1.67;;
26780;SDS011;14366;49.184;8.054;2023-04-24T03:40:20;4.00;;;1.80;;
26780;SDS011;14366;49.184;8.054;2023-04-24T03:45:54;1.70;;;1.60;;
26780;SDS011;14366;49.184;8.054;2023-04-24T03:51:26;3.25;;;2.00;;
26780;SDS011;14366;49.184;8.054;2023-04-24T03:56:58;3.53;;;2.37;;
26780;SDS011;14366;49.184;8.054;2023-04-24T04:02:35;2.53;;;2.03;;
26780;SDS011;14366;49.184;8.054;2023-04-24T04:08:06;4.26;;;2.46;;
26780;SDS011;14366;49.184;8.054;2023-04-24T04:13:24;3.47;;;2.70;;
26780;SDS011;14366;49.184;8.054;2023-04-24T04:18:46;4.10;;;2.50;;
26780;SDS011;14366;49.184;8.054;2023-04-24T04:24:17;4.20;;;3.10;;
26780;SDS011;14366;49.184;8.054;2023-04-24T04:34:55;2.92;;;2.62;;
26780;SDS011;14366;49.184;8.054;2023-04-24T04:45:30;3.05;;;2.60;;
26780;SDS011;14366;49.184;8.054;2023-04-24T04:50:49;3.70;;;2.67;;
26780;SDS011;14366;49.184;8.054;2023-04-24T04:56:20;3.00;;;2.67;;
26780;SDS011;14366;49.184;8.054;2023-04-24T05:01:38;4.45;;;2.60;;
26780;SDS011;14366;49.184;8.054;2023-04-24T05:07:12;3.40;;;2.77;;
26780;SDS011;14366;49.184;8.054;2023-04-24T05:17:47;3.70;;;2.50;;
26780;SDS011;14366;49.184;8.054;2023-04-24T05:28:11;2.35;;;2.15;;
26780;SDS011;14366;49.184;8.054;2023-04-24T05:38:44;5.07;;;2.92;;
26780;SDS011;14366;49.184;8.054;2023-04-24T05:49:24;5.07;;;2.63;;
26780;SDS011;14366;49.184;8.054;2023-04-24T05:54:55;2.93;;;2.60;;
26780;SDS011;14366;49.184;8.054;2023-04-24T06:00:11;2.47;;;2.27;;
26780;SDS011;14366;49.184;8.054;2023-04-24T06:05:58;2.50;;;2.30;;
26780;SDS011;14366;49.184;8.054;2023-04-24T06:11:30;4.10;;;2.17;;
26780;SDS011;14366;49.184;8.054;2023-04-24T06:17:02;2.37;;;1.80;;
26780;SDS011;14366;49.184;8.054;2023-04-24T06:22:21;2.20;;;2.00;;
26780;SDS011;14366;49.184;8.054;2023-04-24T06:27:56;2.70;;;2.00;;
26780;SDS011;14366;49.184;8.054;2023-04-24T06:38:36;2.60;;;1.50;;
26780;SDS011;14366;49.184;8.054;2023-04-24T06:49:12;2.74;;;1.80;;
26780;SDS011;14366;49.184;8.054;2023-04-24T06:54:30;4.67;;;1.87;;
26780;SDS011;14366;49.184;8.054;2023-04-24T07:00:05;2.50;;;2.00;;
26780;SDS011;14366;49.184;8.054;2023-04-24T07:05:36;2.55;;;2.00;;
26780;SDS011;14366;49.184;8.054;2023-04-24T07:11:12;2.13;;;1.93;;
26780;SDS011;14366;49.184;8.054;2023-04-24T07:16:45;2.27;;;1.83;;
26780;SDS011;14366;49.184;8.054;2023-04-24T07:22:17;2.95;;;1.90;;
26780;SDS011;14366;49.184;8.054;2023-04-24T07:27:38;2.17;;;1.97;;
26780;SDS011;14366;49.184;8.054;2023-04-24T07:33:10;5.13;;;2.27;;
26780;SDS011;14366;49.184;8.054;2023-04-24T07:38:29;2.40;;;1.80;;
26780;SDS011;14366;49.184;8.054;2023-04-24T07:44:20;3.07;;;2.20;;
26780;SDS011;14366;49.184;8.054;2023-04-24T07:49:56;2.90;;;1.90;;
26780;SDS011;14366;49.184;8.054;2023-04-24T07:55:28;3.30;;;2.07;;
26780;SDS011;14366;49.184;8.054;2023-04-24T08:00:43;2.70;;;1.80;;
26780;SDS011;14366;49.184;8.054;2023-04-24T08:06:15;2.03;;;1.70;;
26780;SDS011;14366;49.184;8.054;2023-04-24T08:11:47;1.97;;;1.60;;
26780;SDS011;14366;49.184;8.054;2023-04-24T08:17:20;3.40;;;1.80;;
26780;SDS011;14366;49.184;8.054;2023-04-24T08:22:52;2.03;;;1.67;;
26780;SDS011;14366;49.184;8.054;2023-04-24T08:28:12;2.83;;;1.87;;
26780;SDS011;14366;49.184;8.054;2023-04-24T08:33:45;2.37;;;1.73;;
26780;SDS011;14366;49.184;8.054;2023-04-24T08:39:20;2.40;;;1.57;;
26780;SDS011;14366;49.184;8.054;2023-04-24T08:44:52;2.03;;;1.60;;
26780;SDS011;14366;49.184;8.054;2023-04-24T08:50:25;2.10;;;1.80;;
26780;SDS011;14366;49.184;8.054;2023-04-24T08:56:10;2.90;;;1.97;;
26780;SDS011;14366;49.184;8.054;2023-04-24T09:01:42;2.55;;;1.80;;
26780;SDS011;14366;49.184;8.054;2023-04-24T09:07:16;2.97;;;2.67;;
26780;SDS011;14366;49.184;8.054;2023-04-24T09:12:50;4.17;;;2.80;;
26780;SDS011;14366;49.184;8.054;2023-04-24T09:18:22;4.57;;;2.73;;
26780;SDS011;14366;49.184;8.054;2023-04-24T09:23:59;4.57;;;2.70;;
26780;SDS011;14366;49.184;8.054;2023-04-24T09:29:28;3.40;;;2.40;;
26780;SDS011;14366;49.184;8.054;2023-04-24T09:35:10;2.90;;;2.40;;
26780;SDS011;14366;49.184;8.054;2023-04-24T09:40:42;5.13;;;2.83;;
26780;SDS011;14366;49.184;8.054;2023-04-24T09:51:18;3.87;;;2.57;;
26780;SDS011;14366;49.184;8.054;2023-04-24T10:01:55;2.97;;;2.70;;
26780;SDS011;14366;49.184;8.054;2023-04-24T10:12:31;4.15;;;2.92;;
26780;SDS011;14366;49.184;8.054;2023-04-24T10:18:05;4.25;;;3.00;;
26780;SDS011;14366;49.184;8.054;2023-04-24T10:23:39;3.80;;;2.80;;
26780;SDS011;14366;49.184;8.054;2023-04-24T10:29:12;3.40;;;2.50;;
26780;SDS011;14366;49.184;8.054;2023-04-24T10:34:47;3.33;;;2.53;;
26780;SDS011;14366;49.184;8.054;2023-04-24T10:40:25;4.00;;;2.50;;
26780;SDS011;14366;49.184;8.054;2023-04-24T10:46:00;3.77;;;2.50;;
26780;SDS011;14366;49.184;8.054;2023-04-24T10:57:26;4.43;;;3.70;;
26780;SDS011;14366;49.184;8.054;2023-04-24T11:02:58;6.00;;;3.50;;
26780;SDS011;14366;49.184;8.054;2023-04-24T11:08:22;3.87;;;3.20;;
26780;SDS011;14366;49.184;8.054;2023-04-24T11:19:06;5.15;;;3.25;;
26780;SDS011;14366;49.184;8.054;2023-04-24T11:24:49;3.90;;;3.45;;
26780;SDS011;14366;49.184;8.054;2023-04-24T11:30:16;4.97;;;3.40;;
26780;SDS011;14366;49.184;8.054;2023-04-24T11:35:45;5.10;;;3.40;;
26780;SDS011;14366;49.184;8.054;2023-04-24T11:41:19;5.07;;;3.50;;
26780;SDS011;14366;49.184;8.054;2023-04-24T11:46:51;5.73;;;3.10;;
26780;SDS011;14366;49.184;8.054;2023-04-24T11:52:08;5.33;;;3.13;;
26780;SDS011;14366;49.184;8.054;2023-04-24T11:57:43;3.20;;;2.90;;
26780;SDS011;14366;49.184;8.054;2023-04-24T12:03:17;4.00;;;2.73;;
26780;SDS011;14366;49.184;8.054;2023-04-24T12:08:34;5.40;;;2.90;;
26780;SDS011;14366;49.184;8.054;2023-04-24T12:14:11;3.80;;;3.00;;
26780;SDS011;14366;49.184;8.054;2023-04-24T12:19:44;4.30;;;3.20;;
26780;SDS011;14366;49.184;8.054;2023-04-24T12:25:14;4.47;;;3.07;;
26780;SDS011;14366;49.184;8.054;2023-04-24T12:30:50;3.80;;;3.03;;
26780;SDS011;14366;49.184;8.054;2023-04-24T12:36:22;3.20;;;2.90;;
26780;SDS011;14366;49.184;8.054;2023-04-24T12:41:39;7.15;;;2.75;;
26780;SDS011;14366;49.184;8.054;2023-04-24T12:47:12;4.43;;;2.50;;
26780;SDS011;14366;49.184;8.054;2023-04-24T12:52:42;7.05;;;2.90;;
26780;SDS011;14366;49.184;8.054;2023-04-24T13:03:19;4.05;;;2.90;;
26780;SDS011;14366;49.184;8.054;2023-04-24T13:13:54;5.60;;;2.70;;
26780;SDS011;14366;49.184;8.054;2023-04-24T13:24:49;3.30;;;3.00;;
26780;SDS011;14366;49.184;8.054;2023-04-24T13:30:22;3.37;;;2.63;;
26780;SDS011;14366;49.184;8.054;2023-04-24T13:35:40;2.80;;;2.50;;
26780;SDS011;14366;49.184;8.054;2023-04-24T13:41:13;6.27;;;2.70;;
26780;SDS011;14366;49.184;8.054;2023-04-24T13:46:43;3.63;;;2.70;;
26780;SDS011;14366;49.184;8.054;2023-04-24T13:52:18;3.83;;;2.97;;
26780;SDS011;14366;49.184;8.054;2023-04-24T13:57:54;3.90;;;2.67;;
26780;SDS011;14366;49.184;8.054;2023-04-24T14:03:27;4.07;;;2.27;;
26780;SDS011;14366;49.184;8.054;2023-04-24T14:08:59;3.90;;;2.20;;
26780;SDS011;14366;49.184;8.054;2023-04-24T14:19:22;4.27;;;2.53;;
26780;SDS011;14366;49.184;8.054;2023-04-24T14:24:54;2.97;;;2.30;;
26780;SDS011;14366;49.184;8.054;2023-04-24T14:30:14;4.95;;;2.70;;
26780;SDS011;14366;49.184;8.054;2023-04-24T14:35:33;4.75;;;2.55;;
26780;SDS011;14366;49.184;8.054;2023-04-24T14:41:06;4.07;;;2.90;;
26780;SDS011;14366;49.184;8.054;2023-04-24T14:46:27;3.15;;;2.70;;
26780;SDS011;14366;49.184;8.054;2023-04-24T14:52:00;4.57;;;2.80;;
26780;SDS011;14366;49.184;8.054;2023-04-24T14:57:31;4.05;;;2.70;;
26780;SDS011;14366;49.184;8.054;2023-04-24T15:02:46;4.13;;;2.60;;
26780;SDS011;14366;49.184;8.054;2023-04-24T15:08:19;3.53;;;2.77;;
26780;SDS011;14366;49.184;8.054;2023-04-24T15:18:55;3.10;;;2.80;;
26780;SDS011;14366;49.184;8.054;2023-04-24T15:29:18;4.45;;;2.90;;
26780;SDS011;14366;49.184;8.054;2023-04-24T15:39:54;5.73;;;2.63;;
26780;SDS011;14366;49.184;8.054;2023-04-24T15:50:31;2.90;;;2.60;;
26780;SDS011;14366;49.184;8.054;2023-04-24T15:56:06;3.03;;;2.50;;
26780;SDS011;14366;49.184;8.054;2023-04-24T16:01:41;5.30;;;2.70;;
26780;SDS011;14366;49.184;8.054;2023-04-24T16:07:14;3.00;;;2.70;;
26780;SDS011;14366;49.184;8.054;2023-04-24T16:12:46;3.63;;;2.50;;
26780;SDS011;14366;49.184;8.054;2023-04-24T16:18:21;2.95;;;2.35;;
26780;SDS011;14366;49.184;8.054;2023-04-24T16:23:40;4.13;;;2.60;;
26780;SDS011;14366;49.184;8.054;2023-04-24T16:29:14;6.07;;;2.90;;
26780;SDS011;14366;49.184;8.054;2023-04-24T16:34:46;3.13;;;2.40;;
26780;SDS011;14366;49.184;8.054;2023-04-24T16:40:19;2.50;;;1.75;;
26780;SDS011;14366;49.184;8.054;2023-04-24T16:45:49;2.57;;;2.10;;
26780;SDS011;14366;49.184;8.054;2023-04-24T16:51:09;2.00;;;1.80;;
26780;SDS011;14366;49.184;8.054;2023-04-24T16:56:27;2.93;;;2.10;;
26780;SDS011;14366;49.184;8.054;2023-04-24T17:01:59;2.25;;;2.05;;
26780;SDS011;14366;49.184;8.054;2023-04-24T17:07:31;3.00;;;2.17;;
26780;SDS011;14366;49.184;8.054;2023-04-24T17:13:05;16.90;;;11.87;;
26780;SDS011;14366;49.184;8.054;2023-04-24T17:18:37;10.43;;;7.50;;
26780;SDS011;14366;49.184;8.054;2023-04-24T17:24:08;8.97;;;5.30;;
26780;SDS011;14366;49.184;8.054;2023-04-24T17:29:41;7.35;;;5.50;;
26780;SDS011;14366;49.184;8.054;2023-04-24T17:35:12;4.57;;;3.10;;
26780;SDS011;14366;49.184;8.054;2023-04-24T17:40:30;4.40;;;2.90;;
26780;SDS011;14366;49.184;8.054;2023-04-24T17:45:52;3.17;;;2.43;;
26780;SDS011;14366;49.184;8.054;2023-04-24T17:51:27;3.43;;;2.50;;
26780;SDS011;14366;49.184;8.054;2023-04-24T17:57:00;2.57;;;2.30;;
26780;SDS011;14366;49.184;8.054;2023-04-24T18:02:22;2.10;;;1.90;;
26780;SDS011;14366;49.184;8.054;2023-04-24T18:07:58;2.57;;;1.90;;
26780;SDS011;14366;49.184;8.054;2023-04-24T18:13:34;2.00;;;1.70;;
26780;SDS011;14366;49.184;8.054;2023-04-24T18:19:09;2.42;;;1.80;;
26780;SDS011;14366;49.184;8.054;2023-04-24T18:24:44;2.63;;;2.00;;
26780;SDS011;14366;49.184;8.054;2023-04-24T18:30:20;3.63;;;2.87;;
26780;SDS011;14366;49.184;8.054;2023-04-24T18:35:56;5.05;;;2.20;;
26780;SDS011;14366;49.184;8.054;2023-04-24T18:41:27;3.30;;;2.20;;
26780;SDS011;14366;49.184;8.054;2023-04-24T18:46:59;2.07;;;1.87;;
26780;SDS011;14366;49.184;8.054;2023-04-24T18:52:18;2.00;;;1.80;;
26780;SDS011;14366;49.184;8.054;2023-04-24T18:57:50;2.85;;;2.55;;
26780;SDS011;14366;49.184;8.054;2023-04-24T19:03:08;4.57;;;2.97;;
26780;SDS011;14366;49.184;8.054;2023-04-24T19:08:41;4.10;;;3.70;;
26780;SDS011;14366;49.184;8.054;2023-04-24T19:14:13;3.30;;;2.50;;
26780;SDS011;14366;49.184;8.054;2023-04-24T19:19:45;3.10;;;2.57;;
26780;SDS011;14366;49.184;8.054;2023-04-24T19:25:18;2.85;;;2.50;;
26780;SDS011;14366;49.184;8.054;2023-04-24T19:30:53;5.35;;;3.10;;
26780;SDS011;14366;49.184;8.054;2023-04-24T19:36:25;3.00;;;2.60;;
26780;SDS011;14366;49.184;8.054;2023-04-24T19:41:43;4.07;;;3.67;;
26780;SDS011;14366;49.184;8.054;2023-04-24T19:52:22;2.77;;;2.20;;
26780;SDS011;14366;49.184;8.054;2023-04-24T19:57:40;3.80;;;2.40;;
26780;SDS011;14366;49.184;8.054;2023-04-24T20:08:17;2.60;;;2.40;;
26780;SDS011;14366;49.184;8.054;2023-04-24T20:18:38;3.60;;;2.50;;
26780;SDS011;14366;49.184;8.054;2023-04-24T20:24:10;3.70;;;3.00;;
26780;SDS011;14366;49.184;8.054;2023-04-24T20:29:42;3.27;;;2.87;;
26780;SDS011;14366;49.184;8.054;2023-04-24T20:35:05;4.90;;;2.83;;
26780;SDS011;14366;49.184;8.054;2023-04-24T20:40:35;4.10;;;3.00;;
26780;SDS011;14366;49.184;8.054;2023-04-24T20:46:08;4.35;;;2.90;;
26780;SDS011;14366;49.184;8.054;2023-04-24T20:51:26;3.35;;;3.00;;
26780;SDS011;14366;49.184;8.054;2023-04-24T20:57:01;4.40;;;3.43;;
26780;SDS011;14366;49.184;8.054;2023-04-24T21:02:36;4.87;;;3.40;;
26780;SDS011;14366;49.184;8.054;2023-04-24T21:07:57;3.37;;;3.03;;
26780;SDS011;14366;49.184;8.054;2023-04-24T21:13:29;3.70;;;3.03;;
26780;SDS011;14366;49.184;8.054;2023-04-24T21:24:22;3.87;;;3.37;;
26780;SDS011;14366;49.184;8.054;2023-04-24T21:29:58;5.10;;;3.33;;
26780;SDS011;14366;49.184;8.054;2023-04-24T21:35:27;4.07;;;3.13;;
26780;SDS011;14366;49.184;8.054;2023-04-24T21:40:57;3.87;;;2.93;;
26780;SDS011;14366;49.184;8.054;2023-04-24T21:46:33;3.60;;;3.30;;
26780;SDS011;14366;49.184;8.054;2023-04-24T21:51:50;4.43;;;2.80;;
26780;SDS011;14366;49.184;8.054;2023-04-24T21:57:08;3.15;;;2.85;;
26780;SDS011;14366;49.184;8.054;2023-04-24T22:07:59;3.90;;;3.23;;
26780;SDS011;14366;49.184;8.054;2023-04-24T22:18:39;3.30;;;3.00;;
26780;SDS011;14366;49.184;8.054;2023-04-24T22:24:12;4.40;;;3.12;;
26780;SDS011;14366;49.184;8.054;2023-04-24T22:29:44;3.67;;;2.93;;
26780;SDS011;14366;49.184;8.054;2023-04-24T22:40:08;4.28;;;3.22;;
26780;SDS011;14366;49.184;8.054;2023-04-24T22:50:46;3.60;;;3.10;;
26780;SDS011;14366;49.184;8.054;2023-04-24T22:56:08;3.80;;;3.20;;
26780;SDS011;14366;49.184;8.054;2023-04-24T23:01:43;3.93;;;2.90;;
26780;SDS011;14366;49.184;8.054;2023-04-24T23:07:18;4.90;;;3.50;;
26780;SDS011;14366;49.184;8.054;2023-04-24T23:12:54;4.10;;;3.10;;
26780;SDS011;14366;49.184;8.054;2023-04-24T23:18:29;4.43;;;3.33;;
26780;SDS011;14366;49.184;8.054;2023-04-24T23:24:01;4.95;;;3.25;;
26780;SDS011;14366;49.184;8.054;2023-04-24T23:29:35;4.80;;;3.27;;
26780;SDS011;14366;49.184;8.054;2023-04-24T23:35:09;3.30;;;3.00;;
26780;SDS011;14366;49.184;8.054;2023-04-24T23:40:41;5.70;;;3.67;;
26780;SDS011;14366;49.184;8.054;2023-04-24T23:46:15;4.27;;;3.87;;
26780;SDS011;14366;49.184;8.054;2023-04-24T23:51:46;4.53;;;3.90;;
